Time;durP1;ratioP1;P1;durP2;ratioP2;P2;SDS_P1;SDS_P2;PMS_P1;PMS_P2;Temp;Humidity;BMP_temperature;BMP_pressure;BME280_temperature;BME280_humidity;BME280_pressure;Samples;Min_cycle;Max_cycle;Signal;HPM_P1;HPM_P2
2022/11/30 00:00:18;;;;;;;0.60;0.60;;;;;;;4.43;100.00;97118.00;29395;227;63004;-57
2022/11/30 00:00:53;;;;;;;0.60;0.60;;;;;;;4.42;100.00;97125.25;29395;202;63009;-55
2022/11/30 00:01:24;;;;;;;0.52;0.52;;;;;;;4.44;100.00;97120.44;29395;197;63004;-57
2022/11/30 00:01:55;;;;;;;0.60;0.60;;;;;;;4.45;100.00;97123.94;29395;196;63017;-57
2022/11/30 00:02:29;;;;;;;0.60;0.60;;;;;;;4.44;100.00;97123.12;29395;196;63004;-57
2022/11/30 00:03:00;;;;;;;0.50;0.50;;;;;;;4.44;100.00;97122.31;29395;273;63016;-57
2022/11/30 00:03:33;;;;;;;0.60;0.60;;;;;;;4.49;100.00;97115.16;29394;259;64009;-56
2022/11/30 00:04:04;;;;;;;0.45;0.45;;;;;;;4.49;100.00;97120.53;29395;209;63009;-58
2022/11/30 00:04:37;;;;;;;2.85;2.75;;;;;;;4.48;100.00;97118.91;29395;238;63005;-57
2022/11/30 00:05:09;;;;;;;0.60;0.60;;;;;;;4.48;100.00;97112.72;29395;220;63009;-57
2022/11/30 00:05:40;;;;;;;0.50;0.50;;;;;;;4.48;100.00;97124.28;29394;230;64009;-57
2022/11/30 00:06:14;;;;;;;0.57;0.57;;;;;;;4.47;100.00;97117.28;29395;243;63009;-55
2022/11/30 00:06:45;;;;;;;0.60;0.60;;;;;;;4.47;100.00;97113.78;29395;226;63004;-55
2022/11/30 00:07:16;;;;;;;0.60;0.60;;;;;;;4.45;100.00;97119.37;29395;200;63009;-61
2022/11/30 00:07:48;;;;;;;0.60;0.60;;;;;;;4.45;100.00;97121.25;29395;218;63004;-56
2022/11/30 00:08:19;;;;;;;0.60;0.60;;;;;;;4.42;100.00;97117.19;29395;199;63009;-60
2022/11/30 00:08:58;;;;;;;0.50;0.50;;;;;;;4.41;100.00;97120.94;29395;285;63004;-57
2022/11/30 00:09:29;;;;;;;0.50;0.50;;;;;;;4.41;100.00;97123.62;29395;224;63008;-59
2022/11/30 00:10:00;;;;;;;0.50;0.50;;;;;;;4.42;100.00;97119.87;29395;224;63005;-57
2022/11/30 00:10:31;;;;;;;0.50;0.50;;;;;;;4.42;100.00;97117.19;29395;265;63009;-57
2022/11/30 00:11:21;;;;;;;0.50;0.50;;;;;;;4.49;100.00;97120.53;29394;301;64009;-57
2022/11/30 00:11:52;;;;;;;0.50;0.50;;;;;;;4.50;100.00;97116.78;29395;214;63009;-57
2022/11/30 00:12:23;;;;;;;0.60;0.60;;;;;;;4.48;100.00;97113.53;29394;202;64005;-60
2022/11/30 00:12:54;;;;;;;0.50;0.50;;;;;;;4.47;100.00;97117.28;29395;208;63009;-57
2022/11/30 00:13:26;;;;;;;0.50;0.50;;;;;;;4.46;100.00;97115.66;29395;253;63005;-57
2022/11/30 00:13:57;;;;;;;0.50;0.50;;;;;;;4.45;100.00;97114.00;29395;221;63009;-57
2022/11/30 00:14:29;;;;;;;0.50;0.50;;;;;;;4.46;100.00;97114.81;29395;262;63004;-57
2022/11/30 00:15:03;;;;;;;0.60;0.60;;;;;;;4.45;100.00;97119.37;29395;209;63009;-57
2022/11/30 00:15:36;;;;;;;0.60;0.60;;;;;;;4.47;100.00;97119.16;29395;202;63004;-57
2022/11/30 00:16:08;;;;;;;0.60;0.60;;;;;;;4.47;100.00;97117.28;29394;210;64005;-60
2022/11/30 00:16:40;;;;;;;0.60;0.60;;;;;;;4.47;100.00;97117.28;29395;196;63004;-56
2022/11/30 00:17:11;;;;;;;0.60;0.60;;;;;;;4.46;100.00;97121.03;29394;213;64013;-57
2022/11/30 00:17:43;;;;;;;0.60;0.60;;;;;;;4.41;100.00;97112.87;29395;202;63005;-57
2022/11/30 00:18:16;;;;;;;0.50;0.50;;;;;;;4.45;100.00;97119.37;29395;218;63009;-57
2022/11/30 00:18:49;;;;;;;0.60;0.60;;;;;;;4.43;100.00;97120.69;29395;209;63005;-60
2022/11/30 00:19:24;;;;;;;0.60;0.60;;;;;;;4.42;100.00;97114.50;29394;204;64013;-57
2022/11/30 00:19:57;;;;;;;0.60;0.60;;;;;;;4.43;100.00;97115.31;29395;216;63005;-57
2022/11/30 00:20:28;;;;;;;0.50;0.50;;;;;;;4.45;100.00;97116.69;29394;220;64013;-57
2022/11/30 00:21:02;;;;;;;0.60;0.60;;;;;;;4.46;100.00;97114.81;29395;265;63005;-60
2022/11/30 00:21:33;;;;;;;0.50;0.50;;;;;;;4.44;100.00;97117.75;29395;225;63009;-60
2022/11/30 00:22:04;;;;;;;0.60;0.60;;;;;;;4.44;100.00;97117.75;29394;222;64009;-57
2022/11/30 00:22:35;;;;;;;0.50;0.50;;;;;;;4.46;100.00;97121.03;29395;222;63009;-56
2022/11/30 00:23:08;;;;;;;0.50;0.50;;;;;;;4.47;100.00;97114.59;29395;246;63004;-57
2022/11/30 00:23:42;;;;;;;0.50;0.50;;;;;;;4.47;100.00;97116.47;29395;197;63009;-57
2022/11/30 00:24:13;;;;;;;0.60;0.60;;;;;;;4.47;100.00;97117.28;29395;213;63004;-57
2022/11/30 00:24:44;;;;;;;0.50;0.50;;;;;;;4.47;100.00;97122.66;29395;226;63008;-57
2022/11/30 00:25:17;;;;;;;0.60;0.60;;;;;;;4.47;100.00;97111.91;29395;219;63005;-56
2022/11/30 00:25:48;;;;;;;0.60;0.60;;;;;;;4.47;100.00;97111.09;29395;227;63020;-57
2022/11/30 00:26:21;;;;;;;0.60;0.60;;;;;;;4.49;100.00;97115.16;29395;200;63005;-57
2022/11/30 00:26:53;;;;;;;0.50;0.50;;;;;;;4.52;100.00;97120.00;29395;206;63009;-60
2022/11/30 00:27:24;;;;;;;0.50;0.50;;;;;;;4.51;100.00;97114.88;29394;235;64009;-57
2022/11/30 00:28:00;;;;;;;0.60;0.60;;;;;;;4.50;100.00;97116.78;29395;239;63009;-60
2022/11/30 00:28:32;;;;;;;0.50;0.50;;;;;;;4.47;100.00;97117.28;29395;219;63005;-57
2022/11/30 00:29:04;;;;;;;0.50;0.50;;;;;;;4.46;100.00;97120.19;29395;203;63020;-57
2022/11/30 00:29:35;;;;;;;0.60;0.60;;;;;;;4.42;100.00;97109.12;29394;226;64009;-57
2022/11/30 00:30:07;;;;;;;0.60;0.60;;;;;;;4.41;100.00;97110.19;29395;241;63004;-57
2022/11/30 00:30:39;;;;;;;0.55;0.55;;;;;;;4.41;100.00;97109.38;29395;266;63004;-57
2022/11/30 00:31:12;;;;;;;0.55;0.55;;;;;;;4.41;100.00;97112.06;29394;223;64013;-60
2022/11/30 00:31:44;;;;;;;0.60;0.60;;;;;;;4.40;100.00;97108.56;29395;255;63004;-59
2022/11/30 00:32:15;;;;;;;0.52;0.52;;;;;;;4.42;100.00;97111.81;29395;227;63008;-57
2022/11/30 00:32:46;;;;;;;0.40;0.40;;;;;;;4.44;100.00;97106.19;29395;217;63005;-60
2022/11/30 00:33:17;;;;;;;0.60;0.60;;;;;;;4.44;100.00;97116.94;29395;261;63009;-57
2022/11/30 00:33:48;;;;;;;0.50;0.50;;;;;;;4.42;100.00;97114.50;29395;222;63005;-57
2022/11/30 00:34:19;;;;;;;0.60;0.60;;;;;;;4.41;100.00;97110.19;29395;202;63009;-57
2022/11/30 00:34:51;;;;;;;0.70;0.70;;;;;;;4.41;100.00;97112.06;29395;206;63016;-56
2022/11/30 00:35:22;;;;;;;0.60;0.60;;;;;;;4.39;100.00;97117.69;29395;228;63009;-57
2022/11/30 00:36:02;;;;;;;0.50;0.50;;;;;;;4.41;100.00;97112.06;29395;196;63005;-57
2022/11/30 00:36:33;;;;;;;0.50;0.50;;;;;;;4.38;100.00;97108.00;29394;219;64013;-57
2022/11/30 00:37:04;;;;;;;0.60;0.60;;;;;;;4.38;100.00;97118.75;29395;218;63016;-60
2022/11/30 00:37:36;;;;;;;0.60;0.60;;;;;;;4.37;100.00;97106.38;29395;216;63009;-57
2022/11/30 00:38:07;;;;;;;0.60;0.60;;;;;;;4.37;100.00;97111.75;29395;200;63004;-60
2022/11/30 00:38:39;;;;;;;0.60;0.60;;;;;;;4.35;100.00;97111.19;29395;202;63009;-58
2022/11/30 00:39:10;;;;;;;0.60;0.60;;;;;;;4.36;100.00;97110.94;29394;203;64009;-57
2022/11/30 00:39:42;;;;;;;0.50;0.50;;;;;;;4.36;100.00;97108.25;29395;196;63008;-56
2022/11/30 00:40:13;;;;;;;0.60;0.60;;;;;;;4.38;100.00;97105.31;29395;215;63005;-57
2022/11/30 00:40:46;;;;;;;0.50;0.50;;;;;;;4.38;100.00;97108.81;29394;239;64014;-57
2022/11/30 00:41:18;;;;;;;0.60;0.60;;;;;;;4.36;100.00;97105.56;29395;265;63005;-57
2022/11/30 00:41:50;;;;;;;0.50;0.50;;;;;;;4.35;100.00;97108.50;29395;217;63014;-57
2022/11/30 00:42:21;;;;;;;0.50;0.50;;;;;;;4.35;100.00;97108.50;29395;225;63018;-57
2022/11/30 00:42:52;;;;;;;0.60;0.60;;;;;;;4.35;100.00;97109.31;29395;277;63009;-57
2022/11/30 00:43:23;;;;;;;0.60;0.60;;;;;;;4.35;100.00;97108.50;29394;204;64009;-57
2022/11/30 00:43:55;;;;;;;0.60;0.60;;;;;;;4.35;100.00;97108.50;29395;204;63009;-57
2022/11/30 00:44:26;;;;;;;0.60;0.60;;;;;;;4.34;100.00;97106.88;29395;234;63004;-58
2022/11/30 00:44:58;;;;;;;0.50;0.50;;;;;;;4.34;100.00;97106.88;29395;215;63009;-56
2022/11/30 00:45:29;;;;;;;0.60;0.60;;;;;;;4.34;100.00;97109.56;29395;244;63010;-57
2022/11/30 00:46:01;;;;;;;0.57;0.57;;;;;;;4.34;100.00;97107.69;29395;197;63009;-57
2022/11/30 00:46:34;;;;;;;0.60;0.60;;;;;;;4.34;100.00;97105.00;29395;246;63004;-57
2022/11/30 00:47:05;;;;;;;0.60;0.60;;;;;;;4.34;100.00;97113.06;29394;212;64013;-57
2022/11/30 00:47:36;;;;;;;0.70;0.70;;;;;;;4.35;100.00;97108.50;29395;232;63004;-57
2022/11/30 00:48:08;;;;;;;0.60;0.60;;;;;;;4.35;100.00;97113.88;29394;205;64014;-57
2022/11/30 00:48:40;;;;;;;0.60;0.60;;;;;;;4.35;100.00;97109.31;29395;223;63009;-57
2022/11/30 00:49:11;;;;;;;0.60;0.60;;;;;;;4.36;100.00;97110.13;29395;255;63009;-56
2022/11/30 00:49:42;;;;;;;0.60;0.60;;;;;;;4.36;100.00;97110.13;29395;192;63005;-57
2022/11/30 00:50:14;;;;;;;0.50;0.50;;;;;;;4.37;100.00;97117.12;29395;253;63020;-59
2022/11/30 00:50:46;;;;;;;0.60;0.60;;;;;;;4.39;100.00;97115.00;29395;203;63005;-57
2022/11/30 00:51:19;;;;;;;0.60;0.60;;;;;;;4.42;100.00;97114.50;29394;222;64013;-56
2022/11/30 00:51:54;;;;;;;0.50;0.50;;;;;;;4.42;100.00;97114.50;29395;288;63011;-58
2022/11/30 00:52:28;;;;;;;0.80;0.80;;;;;;;4.42;100.00;97111.81;29395;236;63009;-56
2022/11/30 00:52:59;;;;;;;0.60;0.60;;;;;;;4.41;100.00;97118.25;29395;242;63009;-57
2022/11/30 00:53:31;;;;;;;0.60;0.60;;;;;;;4.40;100.00;97115.81;29395;197;63009;-57
2022/11/30 00:54:02;;;;;;;0.50;0.50;;;;;;;4.39;100.00;97115.00;29395;215;63004;-61
2022/11/30 00:54:33;;;;;;;0.60;0.60;;;;;;;4.37;100.00;97117.12;29394;245;64008;-58
2022/11/30 00:55:06;;;;;;;0.57;0.57;;;;;;;4.37;100.00;97117.94;29395;286;63004;-57
2022/11/30 00:55:37;;;;;;;0.60;0.60;;;;;;;4.38;100.00;97118.75;29395;275;63009;-57
2022/11/30 00:56:09;;;;;;;0.57;0.57;;;;;;;4.38;100.00;97116.88;29394;227;64009;-58
2022/11/30 00:56:40;;;;;;;0.60;0.60;;;;;;;4.37;100.00;97109.88;29395;205;63009;-57
2022/11/30 00:57:12;;;;;;;0.60;0.60;;;;;;;4.37;100.00;97111.75;29395;204;63005;-55
2022/11/30 00:57:43;;;;;;;0.50;0.50;;;;;;;4.36;100.00;97110.13;29395;228;63009;-55
2022/11/30 00:58:15;;;;;;;0.60;0.60;;;;;;;4.35;100.00;97108.50;29395;225;63005;-58
2022/11/30 00:58:49;;;;;;;0.60;0.60;;;;;;;4.36;100.00;97110.13;29395;243;63025;-55
2022/11/30 00:59:20;;;;;;;0.60;0.60;;;;;;;4.35;100.00;97108.50;29395;197;63004;-55
2022/11/30 00:59:51;;;;;;;0.45;0.45;;;;;;;4.36;100.00;97107.44;29394;206;64013;-57
2022/11/30 01:00:26;;;;;;;0.50;0.50;;;;;;;4.36;100.00;97110.13;29395;229;63004;-61
2022/11/30 01:00:58;;;;;;;0.60;0.60;;;;;;;4.36;100.00;97110.13;29395;255;63014;-59
2022/11/30 01:01:30;;;;;;;0.60;0.60;;;;;;;4.36;100.00;97110.13;29395;198;63009;-57
2022/11/30 01:02:01;;;;;;;0.50;0.50;;;;;;;4.35;100.00;97108.50;29394;213;64013;-57
2022/11/30 01:02:33;;;;;;;0.60;0.60;;;;;;;4.38;100.00;97113.37;29395;243;63013;-56
2022/11/30 01:03:04;;;;;;;0.60;0.60;;;;;;;4.40;100.00;97108.56;29394;262;64014;-57
2022/11/30 01:03:36;;;;;;;0.60;0.60;;;;;;;4.41;100.00;97112.87;29395;271;63005;-57
2022/11/30 01:04:08;;;;;;;0.60;0.60;;;;;;;4.41;100.00;97118.25;29395;213;63009;-57
2022/11/30 01:04:39;;;;;;;0.60;0.60;;;;;;;4.40;100.00;97115.81;29395;278;63010;-57
2022/11/30 01:05:11;;;;;;;0.50;0.50;;;;;;;4.40;100.00;97116.62;29395;225;63009;-57
2022/11/30 01:05:42;;;;;;;0.50;0.50;;;;;;;4.39;100.00;97115.00;29395;220;63005;-58
2022/11/30 01:06:13;;;;;;;0.50;0.50;;;;;;;4.39;100.00;97115.00;29395;220;63009;-57
2022/11/30 01:06:45;;;;;;;0.60;0.60;;;;;;;4.40;100.00;97111.25;29395;304;63004;-57
2022/11/30 01:07:17;;;;;;;0.60;0.60;;;;;;;4.40;100.00;97116.62;29395;221;63009;-57
2022/11/30 01:07:49;;;;;;;0.50;0.50;;;;;;;4.38;100.00;97114.19;29394;210;64009;-56
2022/11/30 01:08:25;;;;;;;0.50;0.50;;;;;;;4.44;100.00;97115.06;29395;216;63024;-57
2022/11/30 01:08:58;;;;;;;0.50;0.50;;;;;;;4.44;100.00;97112.37;29395;206;63009;-57
2022/11/30 01:09:29;;;;;;;0.50;0.50;;;;;;;4.44;100.00;97117.75;29394;251;64013;-57
2022/11/30 01:10:00;;;;;;;0.50;0.50;;;;;;;4.49;100.00;97117.03;29395;278;63005;-58
2022/11/30 01:10:36;;;;;;;0.60;0.60;;;;;;;4.47;100.00;97117.28;29395;352;63009;-57
2022/11/30 01:11:13;;;;;;;0.55;0.55;;;;;;;4.47;100.00;97117.28;29395;251;63005;-57
2022/11/30 01:11:45;;;;;;;0.60;0.60;;;;;;;4.44;100.00;97128.50;29395;231;63009;-59
2022/11/30 01:12:16;;;;;;;0.60;0.60;;;;;;;4.42;100.00;97109.12;29395;200;63005;-57
2022/11/30 01:12:52;;;;;;;0.50;0.50;;;;;;;4.41;100.00;97114.75;29395;231;63009;-58
2022/11/30 01:13:23;;;;;;;0.50;0.50;;;;;;;4.40;100.00;97115.81;29394;230;64009;-56
2022/11/30 01:13:57;;;;;;;0.50;0.50;;;;;;;4.38;100.00;97118.75;29395;230;63009;-57
2022/11/30 01:14:28;;;;;;;0.50;0.50;;;;;;;4.36;100.00;97121.69;29395;197;63004;-56
2022/11/30 01:15:00;;;;;;;0.57;0.57;;;;;;;4.38;100.00;97113.37;29395;301;63009;-57
2022/11/30 01:15:37;;;;;;;0.50;0.50;;;;;;;4.46;100.00;97118.31;29395;221;63004;-57
2022/11/30 01:16:11;;;;;;;0.50;0.50;;;;;;;4.48;100.00;97113.53;29395;221;63009;-57
2022/11/30 01:16:42;;;;;;;0.50;0.50;;;;;;;4.46;100.00;97118.31;29395;257;63008;-56
2022/11/30 01:17:14;;;;;;;0.60;0.60;;;;;;;4.46;100.00;97114.81;29395;242;63009;-56
2022/11/30 01:17:48;;;;;;;0.60;0.60;;;;;;;4.45;100.00;97114.00;29395;256;63008;-57
2022/11/30 01:18:19;;;;;;;0.50;0.50;;;;;;;4.45;100.00;97110.50;29395;207;63009;-57
2022/11/30 01:18:51;;;;;;;0.60;0.60;;;;;;;4.46;100.00;97118.31;29394;290;64009;-56
2022/11/30 01:19:23;;;;;;;0.50;0.50;;;;;;;4.45;100.00;97119.37;29395;294;63009;-57
2022/11/30 01:19:56;;;;;;;0.50;0.50;;;;;;;4.44;100.00;97117.75;29395;206;63005;-57
2022/11/30 01:20:27;;;;;;;0.50;0.50;;;;;;;4.42;100.00;97114.50;29395;259;63009;-57
2022/11/30 01:20:58;;;;;;;0.50;0.50;;;;;;;4.41;100.00;97115.56;29395;266;63005;-57
2022/11/30 01:21:30;;;;;;;0.50;0.50;;;;;;;4.40;100.00;97121.19;29395;239;63009;-55
2022/11/30 01:22:02;;;;;;;0.57;0.57;;;;;;;4.38;100.00;97121.44;29394;196;64009;-57
2022/11/30 01:22:34;;;;;;;0.50;0.50;;;;;;;4.40;100.00;97121.19;29395;206;63004;-57
2022/11/30 01:23:05;;;;;;;0.50;0.50;;;;;;;4.38;100.00;97122.25;29395;249;63004;-57
2022/11/30 01:23:36;;;;;;;0.60;0.60;;;;;;;4.37;100.00;97111.75;29395;255;63009;-57
2022/11/30 01:24:09;;;;;;;0.60;0.60;;;;;;;4.37;100.00;97120.63;29395;211;63004;-56
2022/11/30 01:24:40;;;;;;;0.60;0.60;;;;;;;4.36;100.00;97126.25;29395;198;63026;-57
2022/11/30 01:25:12;;;;;;;0.52;0.52;;;;;;;4.36;100.00;97120.87;29395;211;63005;-57
2022/11/30 01:25:53;;;;;;;0.50;0.50;;;;;;;4.35;100.00;97124.62;29394;219;64014;-58
2022/11/30 01:26:25;;;;;;;0.50;0.50;;;;;;;4.34;100.00;97129.19;29395;274;63005;-56
2022/11/30 01:26:56;;;;;;;0.43;0.43;;;;;;;4.33;100.00;97124.84;29395;216;63009;-57
2022/11/30 01:27:27;;;;;;;0.40;0.40;;;;;;;4.33;100.00;97126.72;29395;206;63005;-58
2022/11/30 01:27:59;;;;;;;0.50;0.50;;;;;;;4.33;100.00;97132.09;29395;302;63009;-57
2022/11/30 01:28:30;;;;;;;0.50;0.50;;;;;;;4.31;100.00;97123.47;29395;203;63005;-56
2022/11/30 01:29:01;;;;;;;0.50;0.50;;;;;;;4.29;100.00;97129.09;29395;290;63009;-57
2022/11/30 01:29:33;;;;;;;0.60;0.60;;;;;;;4.30;100.00;97128.03;29395;204;63004;-57
2022/11/30 01:30:06;;;;;;;0.50;0.50;;;;;;;4.30;100.00;97128.03;29394;202;64013;-57
2022/11/30 01:30:37;;;;;;;0.50;0.50;;;;;;;4.30;100.00;97132.59;29394;199;64009;-57
2022/11/30 01:31:11;;;;;;;0.50;0.50;;;;;;;4.29;100.00;97131.78;29395;212;63009;-56
2022/11/30 01:31:42;;;;;;;0.60;0.60;;;;;;;4.30;100.00;97124.53;29394;239;64008;-56
2022/11/30 01:32:13;;;;;;;0.50;0.50;;;;;;;4.31;100.00;97123.47;29394;240;64014;-57
2022/11/30 01:32:45;;;;;;;0.60;0.60;;;;;;;4.30;100.00;97127.22;29395;202;63005;-57
2022/11/30 01:33:16;;;;;;;0.50;0.50;;;;;;;4.30;100.00;97133.41;29395;260;63009;-57
2022/11/30 01:33:52;;;;;;;0.60;0.60;;;;;;;4.30;100.00;97127.22;29395;259;63005;-55
2022/11/30 01:34:24;;;;;;;0.60;0.60;;;;;;;4.29;100.00;97126.41;29395;270;63009;-55
2022/11/30 01:34:55;;;;;;;0.40;0.40;;;;;;;4.29;100.00;97130.97;29394;235;64009;-56
2022/11/30 01:35:26;;;;;;;0.50;0.50;;;;;;;4.29;100.00;97125.59;29395;241;63009;-55
2022/11/30 01:36:19;;;;;;;0.52;0.52;;;;;;;4.28;100.00;97130.16;29395;227;63005;-57
2022/11/30 01:36:50;;;;;;;0.50;0.50;;;;;;;4.29;100.00;97133.66;29394;214;64009;-55
2022/11/30 01:37:21;;;;;;;0.60;0.60;;;;;;;4.29;100.00;97131.78;29395;253;63000;-55
2022/11/30 01:37:57;;;;;;;0.50;0.50;;;;;;;4.29;100.00;97130.97;29394;218;64013;-55
2022/11/30 01:38:37;;;;;;;0.40;0.40;;;;;;;4.28;100.00;97129.34;29395;198;63004;-56
2022/11/30 01:39:08;;;;;;;0.57;0.57;;;;;;;4.28;100.00;97132.03;29417;277;63008;-55
2022/11/30 01:39:40;;;;;;;0.50;0.50;;;;;;;4.29;100.00;97125.59;29395;233;63004;-55
2022/11/30 01:40:12;;;;;;;0.60;0.60;;;;;;;4.30;100.00;97132.59;29395;286;63009;-55
2022/11/30 01:40:49;;;;;;;0.55;0.55;;;;;;;4.30;100.00;97132.59;29395;197;63005;-55
2022/11/30 01:41:32;;;;;;;0.50;0.50;;;;;;;4.28;100.00;97134.72;29394;243;64014;-55
2022/11/30 01:42:04;;;;;;;0.50;0.50;;;;;;;4.27;100.00;97131.22;29395;224;63005;-55
2022/11/30 01:42:36;;;;;;;0.60;0.60;;;;;;;4.27;100.00;97138.47;29395;244;63009;-56
2022/11/30 01:43:10;;;;;;;0.60;0.60;;;;;;;4.26;100.00;97132.28;29395;216;63005;-56
2022/11/30 01:43:47;;;;;;;0.50;0.50;;;;;;;4.28;100.00;97140.09;29395;207;63009;-55
2022/11/30 01:44:47;;;;;;;0.50;0.50;;;;;;;4.28;100.00;97143.59;29395;206;63004;-55
2022/11/30 01:45:18;;;;;;;0.50;0.50;;;;;;;4.31;100.00;97136.91;29395;261;63009;-56
2022/11/30 01:45:49;;;;;;;0.50;0.50;;;;;;;4.31;100.00;97144.97;29395;210;63004;-59
2022/11/30 01:46:37;;;;;;;0.57;0.57;;;;;;;4.31;100.00;97140.41;29394;207;64013;-54
2022/11/30 01:47:11;;;;;;;0.50;0.50;;;;;;;4.32;100.00;97135.84;29395;217;63004;-55
2022/11/30 01:47:55;;;;;;;0.50;0.50;;;;;;;4.34;100.00;97144.47;29395;212;63009;-56
2022/11/30 01:48:29;;;;;;;0.50;0.50;;;;;;;4.34;100.00;97136.41;29394;285;64009;-56
2022/11/30 01:49:34;;;;;;;0.50;0.50;;;;;;;4.40;100.00;97132.75;29395;204;63019;-56
2022/11/30 01:50:11;;;;;;;0.60;0.60;;;;;;;4.37;100.00;97135.94;29395;295;63005;-56
2022/11/30 01:50:46;;;;;;;0.60;0.60;;;;;;;4.35;100.00;97140.72;29395;214;63009;-56
2022/11/30 01:51:17;;;;;;;0.60;0.60;;;;;;;4.34;100.00;97133.72;29395;354;63005;-55
2022/11/30 01:51:56;;;;;;;0.50;0.50;;;;;;;4.33;100.00;97137.47;29395;214;63009;-55
2022/11/30 01:52:44;;;;;;;0.50;0.50;;;;;;;4.32;100.00;97135.84;29395;202;63004;-55
2022/11/30 01:53:15;;;;;;;0.50;0.50;;;;;;;4.28;100.00;97138.22;29395;209;63009;-56
2022/11/30 01:53:47;;;;;;;0.50;0.50;;;;;;;4.28;100.00;97135.53;29394;218;64009;-56
2022/11/30 01:54:26;;;;;;;0.60;0.60;;;;;;;4.29;100.00;97136.34;29395;371;63008;-55
2022/11/30 01:55:26;;;;;;;0.52;0.52;;;;;;;4.29;100.00;97136.34;29395;235;63005;-56
2022/11/30 01:55:58;;;;;;;0.62;0.62;;;;;;;4.28;100.00;97135.53;29394;221;64014;-55
2022/11/30 01:56:29;;;;;;;0.50;0.50;;;;;;;4.29;100.00;97139.03;29395;212;63005;-55
2022/11/30 01:57:13;;;;;;;0.60;0.60;;;;;;;4.28;100.00;97129.34;29395;233;63009;-56
2022/11/30 01:57:57;;;;;;;0.55;0.55;;;;;;;4.28;100.00;97130.16;29395;233;63009;-56
2022/11/30 01:58:29;;;;;;;0.50;0.50;;;;;;;4.31;100.00;97128.84;29395;202;63019;-56
2022/11/30 01:59:01;;;;;;;0.60;0.60;;;;;;;4.32;100.00;97135.84;29394;319;64009;-56
2022/11/30 01:59:33;;;;;;;0.50;0.50;;;;;;;4.31;100.00;97139.59;29395;277;63009;-56
2022/11/30 02:00:10;;;;;;;0.50;0.50;;;;;;;4.30;100.00;97133.41;29394;240;64009;-56
2022/11/30 02:00:46;;;;;;;0.60;0.60;;;;;;;4.30;100.00;97132.59;29395;204;63009;-56
2022/11/30 02:01:17;;;;;;;0.50;0.50;;;;;;;4.29;100.00;97133.66;29395;199;63004;-55
2022/11/30 02:01:49;;;;;;;0.60;0.60;;;;;;;4.29;100.00;97130.97;29395;312;63015;-55
2022/11/30 02:02:33;;;;;;;0.70;0.70;;;;;;;4.30;100.00;97137.97;29395;196;63004;-57
2022/11/30 02:03:24;;;;;;;0.60;0.60;;;;;;;4.30;100.00;97129.91;29395;308;63018;-56
2022/11/30 02:04:01;;;;;;;0.50;0.50;;;;;;;4.30;100.00;97137.97;29417;227;63005;-56
2022/11/30 02:04:36;;;;;;;0.60;0.60;;;;;;;4.31;100.00;97128.84;29395;234;63009;-56
2022/11/30 02:05:09;;;;;;;0.70;0.70;;;;;;;4.31;100.00;97134.22;29394;204;64009;-56
2022/11/30 02:05:41;;;;;;;0.52;0.52;;;;;;;4.32;100.00;97138.53;29394;333;64013;-56
2022/11/30 02:06:14;;;;;;;0.52;0.52;;;;;;;4.30;100.00;97135.28;29395;291;63004;-56
2022/11/30 02:06:47;;;;;;;0.60;0.60;;;;;;;4.31;100.00;97139.59;29395;228;63009;-56
2022/11/30 02:07:18;;;;;;;0.60;0.60;;;;;;;4.31;100.00;97128.84;29395;213;63004;-56
2022/11/30 02:07:49;;;;;;;0.60;0.60;;;;;;;4.31;100.00;97136.91;29395;204;63009;-56
2022/11/30 02:08:22;;;;;;;0.65;0.65;;;;;;;4.31;100.00;97142.28;29395;203;63004;-56
2022/11/30 02:08:54;;;;;;;0.60;0.60;;;;;;;4.31;100.00;97135.03;29394;202;64013;-56
2022/11/30 02:09:28;;;;;;;0.50;0.50;;;;;;;4.31;100.00;97129.66;29395;245;63015;-57
2022/11/30 02:09:59;;;;;;;0.60;0.60;;;;;;;4.31;100.00;97128.84;29395;241;63009;-56
2022/11/30 02:10:34;;;;;;;0.50;0.50;;;;;;;4.31;100.00;97140.41;29395;231;63005;-55
2022/11/30 02:11:12;;;;;;;0.55;0.55;;;;;;;4.32;100.00;97135.84;29395;227;63009;-56
2022/11/30 02:11:44;;;;;;;0.50;0.50;;;;;;;4.32;100.00;97130.47;29395;301;63005;-56
2022/11/30 02:12:38;;;;;;;0.60;0.60;;;;;;;4.32;100.00;97135.84;29394;216;64013;-56
2022/11/30 02:13:57;;;;;;;0.60;0.60;;;;;;;4.32;100.00;97133.16;29395;218;63005;-56
2022/11/30 02:14:45;;;;;;;0.50;0.50;;;;;;;4.28;100.00;97134.72;29395;196;63004;-56
2022/11/30 02:15:21;;;;;;;0.60;0.60;;;;;;;4.25;100.00;97135.22;29395;203;63009;-56
2022/11/30 02:16:40;;;;;;;0.52;0.52;;;;;;;4.25;100.00;97137.88;29395;247;63004;-55
2022/11/30 02:17:27;;;;;;;0.60;0.60;;;;;;;4.25;100.00;97146.75;29395;220;63009;-57
2022/11/30 02:18:21;;;;;;;0.60;0.60;;;;;;;4.26;100.00;97142.19;29394;198;64009;-56
2022/11/30 02:19:09;;;;;;;0.57;0.57;;;;;;;4.26;100.00;97143.03;29395;283;63009;-56
2022/11/30 02:20:34;;;;;;;0.60;0.60;;;;;;;4.26;100.00;97139.53;29395;205;63005;-56
2022/11/30 02:21:51;;;;;;;0.70;0.70;;;;;;;4.25;100.00;97137.88;29395;227;63009;-56
2022/11/30 02:22:57;;;;;;;0.60;0.60;;;;;;;4.26;100.00;97142.19;29395;291;63012;-56
2022/11/30 02:24:10;;;;;;;0.60;0.60;;;;;;;4.27;100.00;97138.47;29394;228;64008;-56
2022/11/30 02:25:17;;;;;;;0.88;0.88;;;;;;;4.26;100.00;97142.19;29417;198;63009;-57
2022/11/30 02:26:11;;;;;;;0.60;0.60;;;;;;;4.26;100.00;97142.19;29395;267;63005;-56
2022/11/30 02:27:17;;;;;;;0.50;0.50;;;;;;;4.26;100.00;97147.56;29395;229;63009;-55
2022/11/30 02:28:22;;;;;;;0.60;0.60;;;;;;;4.26;100.00;97142.19;29395;235;63009;-56
2022/11/30 02:29:31;;;;;;;0.70;0.70;;;;;;;4.25;100.00;97141.38;29394;243;64009;-56
2022/11/30 02:30:23;;;;;;;0.60;0.60;;;;;;;4.27;100.00;97143.84;29394;218;64013;-57
2022/11/30 02:30:58;;;;;;;0.65;0.65;;;;;;;4.26;100.00;97140.34;29422;396;63009;-57
2022/11/30 02:31:39;;;;;;;0.60;0.60;;;;;;;4.25;100.00;97143.25;29394;199;64013;-56
2022/11/30 02:32:28;;;;;;;0.50;0.50;;;;;;;4.26;100.00;97139.53;29395;222;63005;-56
2022/11/30 02:33:11;;;;;;;0.55;0.55;;;;;;;4.25;100.00;97141.38;29395;197;63009;-57
2022/11/30 02:33:48;;;;;;;0.60;0.60;;;;;;;4.25;100.00;97141.38;29395;203;63005;-56
2022/11/30 02:34:24;;;;;;;0.50;0.50;;;;;;;4.24;100.00;97144.31;29395;268;63009;-56
2022/11/30 02:35:00;;;;;;;0.60;0.60;;;;;;;4.24;100.00;97141.63;29395;205;63005;-56
2022/11/30 02:35:36;;;;;;;0.60;0.60;;;;;;;4.25;100.00;97137.88;29395;362;63005;-57
2022/11/30 02:36:09;;;;;;;0.57;0.57;;;;;;;4.24;100.00;97138.94;29394;202;64009;-57
2022/11/30 02:36:43;;;;;;;0.60;0.60;;;;;;;4.25;100.00;97140.56;29395;306;63015;-56
2022/11/30 02:37:16;;;;;;;0.60;0.60;;;;;;;4.25;100.00;97137.88;29395;260;63004;-58
2022/11/30 02:37:50;;;;;;;0.60;0.60;;;;;;;4.25;100.00;97137.88;29395;218;63019;-56
2022/11/30 02:38:26;;;;;;;0.50;0.50;;;;;;;4.25;100.00;97140.56;29396;245;63004;-56
2022/11/30 02:38:57;;;;;;;0.60;0.60;;;;;;;4.25;100.00;97140.56;29395;211;63008;-56
2022/11/30 02:39:28;;;;;;;0.60;0.60;;;;;;;4.26;100.00;97136.84;29395;245;63005;-56
2022/11/30 02:40:01;;;;;;;0.60;0.60;;;;;;;4.24;100.00;97138.94;29395;253;63009;-57
2022/11/30 02:40:32;;;;;;;0.57;0.57;;;;;;;4.23;100.00;97134.63;29394;200;64009;-57
2022/11/30 02:41:04;;;;;;;0.50;0.50;;;;;;;4.21;100.00;97136.75;29395;210;63009;-56
2022/11/30 02:41:37;;;;;;;0.55;0.55;;;;;;;4.21;100.00;97134.06;29395;231;63005;-57
2022/11/30 02:42:13;;;;;;;0.57;0.57;;;;;;;4.22;100.00;97141.06;29395;251;63009;-57
2022/11/30 02:42:45;;;;;;;0.50;0.50;;;;;;;4.21;100.00;97139.44;29395;204;63008;-56
2022/11/30 02:43:22;;;;;;;0.60;0.60;;;;;;;4.22;100.00;97143.75;29395;220;63009;-56
2022/11/30 02:43:53;;;;;;;0.52;0.52;;;;;;;4.21;100.00;97140.25;29394;286;64009;-57
2022/11/30 02:44:26;;;;;;;0.60;0.60;;;;;;;4.20;100.00;97137.81;29395;205;63017;-56
2022/11/30 02:44:58;;;;;;;0.52;0.52;;;;;;;4.20;100.00;97140.50;29395;209;63004;-57
2022/11/30 02:45:37;;;;;;;0.50;0.50;;;;;;;4.20;100.00;97137.81;29395;228;63009;-57
2022/11/30 02:46:30;;;;;;;0.50;0.50;;;;;;;4.20;100.00;97140.50;29395;209;63010;-56
2022/11/30 02:47:21;;;;;;;0.60;0.60;;;;;;;4.20;100.00;97135.94;29395;197;63005;-56
2022/11/30 02:48:13;;;;;;;0.90;0.90;;;;;;;4.20;100.00;97141.31;29395;351;63009;-57
2022/11/30 02:49:29;;;;;;;0.60;0.60;;;;;;;4.19;100.00;97139.69;29395;236;63005;-56
2022/11/30 02:50:08;;;;;;;0.57;0.57;;;;;;;4.18;100.00;97139.94;29394;304;64009;-56